Time;durP1;ratioP1;P1;durP2;ratioP2;P2;SDS_P1;SDS_P2;PMS_P1;PMS_P2;Temp;Humidity;BMP_temperature;BMP_pressure;BME280_temperature;BME280_humidity;BME280_pressure;Samples;Min_cycle;Max_cycle;Signal;HPM_P1;HPM_P2
2022/06/02 00:00:20;;;;;;;8.10;7.40;;;9.40;99.90;;;;;;5047749;28;20048;-66
2022/06/02 00:03:35;;;;;;;8.18;7.35;;;9.40;99.90;;;;;;5046688;28;20536;-66
2022/06/02 00:06:08;;;;;;;8.40;7.60;;;9.30;99.90;;;;;;5014459;28;20687;-66
2022/06/02 00:09:11;;;;;;;7.60;6.90;;;9.30;99.90;;;;;;5055573;28;20505;-66
2022/06/02 00:12:14;;;;;;;7.90;6.72;;;9.30;99.90;;;;;;5061219;28;20168;-66
2022/06/02 00:14:55;;;;;;;8.45;7.07;;;9.20;99.90;;;;;;5070624;28;20048;-67
2022/06/02 00:18:25;;;;;;;8.87;7.03;;;9.10;99.90;;;;;;5046019;28;20049;-66
2022/06/02 00:21:09;;;;;;;7.57;6.88;;;9.10;99.90;;;;;;4965292;28;20309;-66
2022/06/02 00:23:51;;;;;;;7.43;6.72;;;9.00;99.90;;;;;;4964821;28;20507;-66
2022/06/02 00:26:27;;;;;;;10.83;6.80;;;9.00;99.90;;;;;;5015184;28;20060;-66
2022/06/02 00:29:08;;;;;;;7.40;6.68;;;9.00;99.90;;;;;;5045088;28;20524;-66
2022/06/02 00:31:45;;;;;;;8.50;6.80;;;9.00;99.90;;;;;;5045928;28;20067;-66
2022/06/02 00:34:32;;;;;;;9.45;6.82;;;8.90;99.90;;;;;;5046458;28;20405;-67
2022/06/02 00:37:13;;;;;;;9.93;7.38;;;8.90;99.90;;;;;;5045941;28;20088;-66
2022/06/02 00:39:39;;;;;;;7.07;6.38;;;8.80;99.90;;;;;;5045498;28;20114;-66
2022/06/02 00:42:17;;;;;;;8.10;7.30;;;8.80;99.90;;;;;;5046378;28;20464;-66
2022/06/02 00:44:57;;;;;;;6.97;6.28;;;8.80;99.90;;;;;;5046205;28;20581;-66
2022/06/02 00:47:49;;;;;;;8.38;7.57;;;8.70;99.90;;;;;;5046598;28;20048;-66
2022/06/02 00:50:59;;;;;;;8.43;6.95;;;8.70;99.90;;;;;;5047037;28;20048;-66
2022/06/02 00:59:48;;;;;;;9.75;7.20;;;8.70;99.90;;;;;;5045576;28;20057;-66
2022/06/02 01:02:14;;;;;;;7.40;6.68;;;8.70;99.90;;;;;;5046834;28;20063;-66
2022/06/02 01:04:43;;;;;;;8.85;7.68;;;8.60;99.90;;;;;;5044584;28;20721;-66
2022/06/02 01:07:56;;;;;;;7.70;7.00;;;8.60;99.90;;;;;;5044549;28;20084;-66
2022/06/02 01:10:28;;;;;;;;;;;8.60;99.90;;;;;;5045323;28;20067;-66
2022/06/02 01:13:05;;;;;;;8.30;6.55;;;8.50;99.90;;;;;;5045334;28;19924;-66
2022/06/02 01:15:51;;;;;;;10.77;7.65;;;8.40;99.90;;;;;;5045748;28;20408;-66
2022/06/02 01:18:31;;;;;;;7.10;6.40;;;8.40;99.90;;;;;;5046045;28;20041;-66
2022/06/02 01:21:30;;;;;;;12.55;7.95;;;8.40;99.90;;;;;;5045111;28;20083;-66
2022/06/02 01:24:19;;;;;;;7.43;6.72;;;8.40;99.90;;;;;;5044785;28;20056;-66
2022/06/02 01:27:03;;;;;;;8.30;7.47;;;8.30;99.90;;;;;;5049595;28;20520;-66
2022/06/02 01:29:52;;;;;;;7.05;5.95;;;8.30;99.90;;;;;;5050138;28;20094;-66
2022/06/02 01:32:21;;;;;;;7.40;6.63;;;8.30;99.90;;;;;;5049942;28;20049;-66
2022/06/02 01:35:11;;;;;;;6.95;6.25;;;8.30;99.90;;;;;;5047690;28;20053;-66
2022/06/02 01:38:04;;;;;;;8.95;7.50;;;8.30;99.90;;;;;;5050063;28;20049;-66
2022/06/02 01:41:00;;;;;;;7.45;6.75;;;8.20;99.90;;;;;;5049224;28;20493;-66
2022/06/02 01:43:36;;;;;;;8.65;7.00;;;8.20;99.90;;;;;;5048372;28;20445;-66
2022/06/02 01:46:11;;;;;;;7.78;6.18;;;8.20;99.90;;;;;;5049521;28;20040;-66
2022/06/02 01:48:46;;;;;;;7.93;6.35;;;8.20;99.90;;;;;;5049292;28;20321;-65
2022/06/02 01:51:38;;;;;;;6.55;5.93;;;8.10;99.90;;;;;;5050182;28;20037;-65
2022/06/02 01:54:29;;;;;;;6.60;6.00;;;8.10;99.90;;;;;;5048820;28;20112;-66
2022/06/02 01:57:12;;;;;;;8.82;5.75;;;8.10;99.90;;;;;;5048888;28;20045;-66
2022/06/02 02:00:05;;;;;;;6.07;5.40;;;8.00;99.90;;;;;;5049325;28;20049;-66
2022/06/02 02:02:37;;;;;;;;;;;8.00;99.90;;;;;;5047847;28;20049;-66
2022/06/02 02:05:26;;;;;;;5.85;5.25;;;8.00;99.90;;;;;;5049010;28;19921;-66
2022/06/02 02:08:11;;;;;;;8.18;5.47;;;7.90;99.90;;;;;;5048879;28;20499;-66
2022/06/02 02:10:47;;;;;;;6.40;5.57;;;7.90;99.90;;;;;;5049174;28;20048;-66
2022/06/02 02:13:23;;;;;;;6.10;5.50;;;7.90;99.90;;;;;;5049928;28;20175;-66
2022/06/02 02:16:06;;;;;;;7.63;5.93;;;7.90;99.90;;;;;;5047974;28;20061;-66
2022/06/02 02:19:09;;;;;;;6.65;6.00;;;7.90;99.90;;;;;;5048861;28;20051;-66
2022/06/02 02:22:09;;;;;;;5.80;5.15;;;7.90;99.90;;;;;;5048965;28;20049;-66
2022/06/02 02:25:04;;;;;;;5.93;5.40;;;7.90;99.90;;;;;;5047440;28;20433;-66
2022/06/02 02:28:04;;;;;;;5.65;5.15;;;8.00;99.90;;;;;;5047779;28;20132;-66
2022/06/02 02:30:58;;;;;;;6.50;5.90;;;7.90;99.90;;;;;;5048197;28;20057;-66
2022/06/02 02:33:51;;;;;;;7.13;6.40;;;8.00;99.90;;;;;;5042875;28;20513;-66
2022/06/02 02:36:19;;;;;;;7.75;7.05;;;8.00;99.90;;;;;;5047384;28;20057;-66
2022/06/02 02:38:51;;;;;;;9.55;6.78;;;8.00;99.90;;;;;;5048963;28;20056;-66
2022/06/02 02:41:27;;;;;;;7.32;6.53;;;8.00;99.90;;;;;;5048726;28;20639;-66
2022/06/02 02:44:00;;;;;;;7.90;7.00;;;8.00;99.90;;;;;;5047617;28;20434;-65
2022/06/02 02:46:40;;;;;;;14.30;6.35;;;8.10;99.90;;;;;;5048644;28;20051;-66
2022/06/02 02:49:35;;;;;;;7.18;6.53;;;8.10;99.90;;;;;;5048245;28;20055;-66
2022/06/02 02:52:40;;;;;;;7.57;6.78;;;8.10;99.90;;;;;;5038025;28;20053;-66
2022/06/02 02:55:08;;;;;;;7.28;6.68;;;8.10;99.90;;;;;;5048277;28;20099;-66
2022/06/02 02:58:04;;;;;;;7.55;6.68;;;8.20;99.90;;;;;;5047692;28;20045;-65
2022/06/02 03:00:54;;;;;;;7.43;6.13;;;8.10;99.90;;;;;;5048352;28;20121;-66
2022/06/02 03:03:25;;;;;;;7.15;6.50;;;8.10;99.90;;;;;;5048155;28;20044;-66
2022/06/02 03:06:15;;;;;;;8.18;6.22;;;8.10;99.90;;;;;;5047184;28;20051;-66
2022/06/02 03:09:08;;;;;;;9.65;6.75;;;8.10;99.90;;;;;;5046956;28;20139;-66
2022/06/02 03:11:52;;;;;;;7.15;6.38;;;8.10;99.90;;;;;;5046402;28;20560;-66
2022/06/02 03:14:18;;;;;;;7.10;6.50;;;8.10;99.90;;;;;;5048190;28;20094;-66
2022/06/02 03:16:50;;;;;;;7.20;6.50;;;8.10;99.90;;;;;;5048218;28;20159;-66
2022/06/02 03:19:28;;;;;;;6.65;6.07;;;8.10;99.90;;;;;;5046348;28;20052;-66
2022/06/02 03:22:11;;;;;;;7.13;6.32;;;8.10;99.90;;;;;;5047651;28;20057;-66
2022/06/02 03:24:53;;;;;;;6.68;6.05;;;8.20;99.90;;;;;;5047919;28;20236;-66
2022/06/02 03:27:23;;;;;;;;;;;8.20;99.90;;;;;;5046699;28;20074;-66
2022/06/02 03:30:13;;;;;;;6.70;6.00;;;8.10;99.90;;;;;;5047543;28;19921;-66
2022/06/02 03:33:10;;;;;;;9.50;5.53;;;8.20;99.90;;;;;;5045873;28;20068;-66
2022/06/02 03:36:00;;;;;;;7.05;6.07;;;8.20;99.90;;;;;;5047572;28;20048;-66
2022/06/02 03:38:47;;;;;;;6.15;5.55;;;8.20;99.90;;;;;;5047830;28;20056;-66
2022/06/02 03:41:24;;;;;;;6.55;5.85;;;8.20;99.90;;;;;;5047654;28;20398;-66
2022/06/02 03:44:00;;;;;;;7.10;6.38;;;8.20;99.90;;;;;;5046960;28;20601;-66
2022/06/02 03:47:03;;;;;;;7.50;6.53;;;8.20;99.90;;;;;;5047191;28;20052;-66
2022/06/02 03:50:12;;;;;;;6.60;6.00;;;8.30;99.90;;;;;;5045974;28;20052;-66
2022/06/02 03:53:17;;;;;;;9.38;6.13;;;8.30;99.90;;;;;;5045988;28;20091;-65
2022/06/02 03:55:56;;;;;;;6.65;5.57;;;8.30;99.90;;;;;;5045860;28;20082;-66
2022/06/02 03:58:40;;;;;;;13.50;6.30;;;8.30;99.90;;;;;;5047406;28;20116;-65
2022/06/02 04:01:11;;;;;;;6.43;5.40;;;8.30;99.90;;;;;;5046810;28;20274;-66
2022/06/02 04:03:37;;;;;;;6.82;6.20;;;8.40;99.90;;;;;;5047294;28;20037;-65
2022/06/02 04:06:30;;;;;;;6.63;6.00;;;8.40;99.90;;;;;;5046994;28;20048;-66
2022/06/02 04:09:15;;;;;;;6.28;5.63;;;8.40;99.90;;;;;;5046221;28;20045;-66
2022/06/02 04:15:03;;;;;;;6.13;5.53;;;8.40;99.90;;;;;;5045809;28;20053;-66
2022/06/02 04:18:10;;;;;;;8.73;6.50;;;8.50;99.90;;;;;;5045431;28;20091;-65
2022/06/02 04:20:48;;;;;;;7.18;5.38;;;8.50;99.90;;;;;;5047073;28;20130;-66
2022/06/02 04:23:55;;;;;;;7.88;5.90;;;8.60;99.90;;;;;;5046937;28;20045;-65
2022/06/02 04:26:35;;;;;;;6.43;5.78;;;8.50;99.90;;;;;;5046854;28;20060;-66
2022/06/02 04:29:34;;;;;;;5.38;4.93;;;8.60;99.90;;;;;;5044695;28;20456;-66
2022/06/02 04:32:41;;;;;;;8.27;6.22;;;8.60;99.90;;;;;;5052445;28;20055;-66
2022/06/02 04:35:12;;;;;;;5.43;4.93;;;8.70;99.90;;;;;;5064258;28;20044;-65
2022/06/02 04:38:16;;;;;;;8.88;5.00;;;8.70;99.90;;;;;;5065987;28;20052;-66
2022/06/02 04:41:00;;;;;;;5.97;5.18;;;8.80;99.90;;;;;;5067086;28;20044;-66
2022/06/02 04:43:39;;;;;;;6.80;6.10;;;8.80;99.90;;;;;;5064856;28;20048;-66
2022/06/02 04:46:29;;;;;;;5.88;5.28;;;8.90;99.90;;;;;;5063584;28;20041;-66
2022/06/02 04:49:13;;;;;;;6.85;5.57;;;8.90;99.90;;;;;;5035180;28;20056;-66
2022/06/02 04:51:50;;;;;;;6.13;5.53;;;9.00;99.90;;;;;;5054030;28;20048;-66
2022/06/02 04:54:24;;;;;;;5.18;4.68;;;9.10;99.90;;;;;;5046717;28;20429;-66
2022/06/02 04:56:58;;;;;;;7.32;4.45;;;9.10;99.90;;;;;;5045152;28;20055;-66
2022/06/02 04:59:47;;;;;;;5.43;4.90;;;9.70;99.90;;;;;;5044575;28;20102;-66
2022/06/02 05:02:32;;;;;;;5.28;4.72;;;9.20;99.90;;;;;;5045632;28;20056;-66
2022/06/02 05:05:07;;;;;;;5.82;5.13;;;9.30;99.90;;;;;;5043916;28;20110;-66
2022/06/02 05:07:59;;;;;;;6.38;4.53;;;9.40;99.90;;;;;;5046115;28;20083;-66
2022/06/02 05:10:38;;;;;;;5.22;3.92;;;9.50;99.90;;;;;;5046221;28;20136;-66
2022/06/02 05:13:09;;;;;;;5.30;4.45;;;9.50;99.90;;;;;;5045406;28;20068;-66
2022/06/02 05:16:05;;;;;;;8.38;4.40;;;9.50;99.90;;;;;;5045698;28;20064;-66
2022/06/02 05:19:07;;;;;;;8.02;4.55;;;9.60;99.90;;;;;;5045607;28;20045;-66
2022/06/02 05:21:44;;;;;;;5.00;4.50;;;9.70;99.90;;;;;;5046006;28;20627;-66
2022/06/02 05:24:34;;;;;;;6.53;4.25;;;9.70;99.90;;;;;;5057409;28;20087;-66
2022/06/02 05:27:35;;;;;;;4.72;3.95;;;9.80;99.90;;;;;;5057114;28;20052;-66
2022/06/02 05:30:25;;;;;;;4.30;3.90;;;9.90;99.90;;;;;;5045566;28;20080;-66
2022/06/02 05:33:20;;;;;;;4.43;4.03;;;10.00;99.90;;;;;;5047344;28;20131;-66
2022/06/02 05:36:16;;;;;;;4.60;3.85;;;10.00;99.90;;;;;;5028507;28;20049;-66
2022/06/02 05:39:16;;;;;;;5.75;3.85;;;10.10;99.90;;;;;;5046127;28;20041;-66
2022/06/02 05:41:49;;;;;;;6.53;3.90;;;10.20;99.90;;;;;;5066309;28;20056;-66
2022/06/02 05:44:21;;;;;;;5.20;3.85;;;10.30;99.90;;;;;;5065372;28;20038;-66
2022/06/02 05:47:11;;;;;;;4.07;3.77;;;10.30;99.90;;;;;;5065056;28;20062;-66
2022/06/02 05:49:49;;;;;;;11.07;3.78;;;10.40;99.90;;;;;;5051565;28;20072;-66
2022/06/02 05:52:36;;;;;;;4.50;3.42;;;10.50;99.90;;;;;;5053090;28;20036;-66
2022/06/02 05:55:18;;;;;;;5.00;3.95;;;10.60;99.90;;;;;;5049576;28;20430;-66
2022/06/02 05:58:02;;;;;;;;;;;10.70;99.90;;;;;;5051505;28;20484;-66
2022/06/02 06:00:36;;;;;;;4.18;3.10;;;10.70;99.90;;;;;;5054347;28;20479;-66
2022/06/02 06:03:16;;;;;;;4.13;3.05;;;10.90;99.90;;;;;;5054094;28;20120;-66
2022/06/02 06:06:00;;;;;;;2.92;2.55;;;10.90;99.90;;;;;;5054262;28;20401;-66
2022/06/02 06:08:31;;;;;;;3.90;2.70;;;11.00;99.90;;;;;;5047959;28;20049;-66
2022/06/02 06:11:32;;;;;;;4.23;2.77;;;11.00;99.90;;;;;;5052615;28;20581;-66
2022/06/02 06:14:36;;;;;;;2.03;1.83;;;11.10;99.90;;;;;;5044863;28;20052;-66
2022/06/02 06:17:10;;;;;;;2.35;2.15;;;11.20;99.90;;;;;;5053204;28;20068;-66
2022/06/02 06:20:02;;;;;;;3.80;2.47;;;11.30;99.90;;;;;;5055854;28;20425;-65
2022/06/02 06:23:01;;;;;;;2.83;2.60;;;11.40;99.90;;;;;;5054434;28;20060;-66
2022/06/02 06:25:40;;;;;;;4.07;2.00;;;11.40;99.90;;;;;;5057896;28;20041;-66
2022/06/02 06:28:15;;;;;;;4.15;2.35;;;11.50;99.90;;;;;;5052247;28;20048;-66
2022/06/02 06:31:08;;;;;;;4.75;2.78;;;11.60;99.90;;;;;;5050278;28;20056;-66
2022/06/02 06:33:39;;;;;;;8.05;2.30;;;11.70;99.90;;;;;;5051129;28;20044;-66
2022/06/02 06:36:20;;;;;;;8.18;2.45;;;11.70;99.90;;;;;;5046309;28;20044;-66
2022/06/02 06:39:03;;;;;;;3.10;1.73;;;11.80;99.90;;;;;;5050352;28;20060;-66
2022/06/02 06:41:31;;;;;;;2.17;1.95;;;11.80;99.90;;;;;;5049464;28;20132;-66
2022/06/02 06:44:35;;;;;;;3.33;2.10;;;11.90;99.90;;;;;;5046949;28;20132;-66
2022/06/02 06:47:30;;;;;;;3.55;1.75;;;12.00;99.90;;;;;;5051576;28;20525;-66
2022/06/02 06:50:14;;;;;;;6.00;2.05;;;12.10;99.90;;;;;;5053536;28;20048;-66
2022/06/02 06:52:55;;;;;;;1.55;1.45;;;12.20;99.90;;;;;;5048035;28;20073;-66
2022/06/02 06:55:49;;;;;;;2.78;1.80;;;12.20;99.90;;;;;;5049183;28;20234;-66
2022/06/02 06:58:53;;;;;;;1.83;1.45;;;12.20;99.90;;;;;;5051810;28;20041;-66
2022/06/02 07:01:46;;;;;;;6.97;1.92;;;12.30;99.90;;;;;;5056445;28;20127;-66
2022/06/02 07:04:45;;;;;;;3.95;1.90;;;12.40;99.90;;;;;;5054288;28;20171;-66
2022/06/02 07:07:36;;;;;;;2.92;1.73;;;12.40;99.90;;;;;;5053956;28;20041;-66
2022/06/02 07:10:06;;;;;;;1.50;1.40;;;12.50;99.90;;;;;;5049339;28;20041;-66
2022/06/02 07:12:50;;;;;;;4.65;1.40;;;12.50;99.90;;;;;;5055673;28;20061;-66
2022/06/02 07:15:44;;;;;;;4.15;1.83;;;12.50;99.90;;;;;;5050535;28;20110;-66
2022/06/02 07:18:22;;;;;;;4.65;1.52;;;12.50;99.90;;;;;;5046587;28;20051;-66
2022/06/02 07:21:15;;;;;;;2.05;1.35;;;12.60;99.90;;;;;;5049378;28;20037;-66
2022/06/02 07:24:03;;;;;;;;;;;12.70;99.90;;;;;;5047456;28;20041;-65
2022/06/02 07:26:47;;;;;;;4.03;1.63;;;12.90;99.90;;;;;;5046194;28;20598;-68
2022/06/02 07:29:42;;;;;;;3.13;1.80;;;13.00;99.90;;;;;;5048288;28;20052;-67
2022/06/02 07:32:41;;;;;;;1.85;1.20;;;13.00;99.90;;;;;;5053975;28;20051;-68
2022/06/02 07:35:28;;;;;;;4.90;1.70;;;12.90;99.90;;;;;;5066140;28;20091;-69
2022/06/02 07:38:06;;;;;;;3.40;1.88;;;12.90;99.90;;;;;;5065855;28;20508;-69
2022/06/02 07:40:47;;;;;;;2.75;1.55;;;13.00;99.90;;;;;;5066708;28;20075;-69
2022/06/02 07:43:25;;;;;;;1.98;1.45;;;13.00;99.90;;;;;;5057061;28;20055;-70
2022/06/02 07:46:16;;;;;;;2.10;1.30;;;13.10;99.90;;;;;;5055312;28;20055;-70
2022/06/02 07:49:00;;;;;;;3.95;1.40;;;13.20;99.90;;;;;;5068132;28;20050;-69
2022/06/02 07:51:50;;;;;;;3.72;1.60;;;13.30;99.90;;;;;;5057781;28;20110;-70
2022/06/02 07:54:34;;;;;;;2.90;1.55;;;13.30;99.90;;;;;;5047170;28;20102;-69
2022/06/02 07:57:26;;;;;;;3.90;1.55;;;13.30;99.90;;;;;;5045832;28;20052;-70
2022/06/02 08:00:04;;;;;;;3.70;1.55;;;13.40;99.90;;;;;;5044511;28;20099;-70
2022/06/02 08:03:02;;;;;;;1.85;1.30;;;13.40;99.90;;;;;;5047706;28;20114;-70
2022/06/02 08:05:37;;;;;;;2.13;1.40;;;13.50;99.90;;;;;;5047294;28;20052;-70
2022/06/02 08:08:29;;;;;;;1.33;1.08;;;13.60;99.90;;;;;;5046045;28;20596;-70
2022/06/02 08:11:16;;;;;;;1.55;1.17;;;13.80;99.90;;;;;;5047061;28;20052;-70
2022/06/02 08:14:06;;;;;;;1.58;1.38;;;13.90;99.90;;;;;;5045670;28;20106;-70
2022/06/02 08:16:54;;;;;;;5.22;1.48;;;13.80;99.90;;;;;;5045820;28;20509;-70
2022/06/02 08:19:53;;;;;;;1.60;1.13;;;13.80;99.90;;;;;;5049209;28;20092;-70
2022/06/02 08:22:30;;;;;;;4.30;1.40;;;14.00;99.90;;;;;;5049896;28;20049;-71
2022/06/02 08:25:12;;;;;;;3.20;1.20;;;14.20;99.90;;;;;;5044976;28;20440;-71
2022/06/02 08:27:47;;;;;;;;;;;14.10;99.90;;;;;;5046221;28;20118;-71
2022/06/02 08:30:29;;;;;;;2.90;1.00;;;14.20;99.90;;;;;;5046230;28;19968;-71
2022/06/02 08:33:03;;;;;;;1.87;1.40;;;14.30;99.90;;;;;;5044919;28;20037;-70
2022/06/02 08:35:31;;;;;;;3.08;1.23;;;14.20;99.90;;;;;;5045651;28;20103;-69
2022/06/02 08:38:35;;;;;;;1.40;1.30;;;14.30;99.90;;;;;;5045274;28;20091;-69
2022/06/02 08:41:29;;;;;;;3.70;1.27;;;14.20;99.90;;;;;;5047924;28;20048;-70
2022/06/02 08:44:17;;;;;;;2.70;1.08;;;14.20;99.90;;;;;;5051456;28;20052;-70
2022/06/02 08:47:13;;;;;;;3.33;1.40;;;14.30;99.90;;;;;;5044816;28;20048;-70
2022/06/02 08:50:10;;;;;;;2.35;0.93;;;14.30;99.90;;;;;;5044193;28;20063;-69
2022/06/02 08:52:48;;;;;;;3.63;1.58;;;14.30;99.90;;;;;;5046184;28;20051;-69
2022/06/02 08:55:48;;;;;;;1.92;1.40;;;14.60;99.90;;;;;;5045858;28;20531;-70
2022/06/02 08:58:36;;;;;;;2.10;1.10;;;14.30;99.90;;;;;;5051930;28;20131;-69
2022/06/02 09:01:29;;;;;;;4.00;1.38;;;14.30;99.90;;;;;;5046091;28;20102;-69
2022/06/02 09:04:18;;;;;;;2.47;1.35;;;14.30;99.90;;;;;;5052274;28;20036;-69
2022/06/02 09:07:05;;;;;;;1.70;1.00;;;14.40;99.90;;;;;;5046780;28;20110;-69
2022/06/02 09:09:57;;;;;;;5.80;1.33;;;14.60;99.90;;;;;;5046195;28;20037;-70
2022/06/02 09:12:29;;;;;;;3.40;1.20;;;14.80;99.90;;;;;;5047815;28;20102;-70
2022/06/02 09:15:34;;;;;;;2.42;1.38;;;14.90;99.90;;;;;;5052479;28;20057;-69
2022/06/02 09:18:36;;;;;;;2.75;1.60;;;14.90;99.90;;;;;;5044110;28;20057;-69
2022/06/02 09:21:14;;;;;;;6.57;1.40;;;15.10;99.90;;;;;;5044113;28;20087;-69
2022/06/02 09:23:56;;;;;;;1.92;1.05;;;15.20;99.90;;;;;;5044437;28;20059;-69
2022/06/02 09:26:59;;;;;;;2.78;1.05;;;15.20;99.90;;;;;;5045234;28;20041;-69
2022/06/02 09:29:34;;;;;;;1.50;0.95;;;15.10;99.90;;;;;;5044643;28;20053;-70
2022/06/02 09:32:18;;;;;;;1.70;1.00;;;15.10;99.90;;;;;;5043403;28;20513;-69
2022/06/02 09:35:15;;;;;;;1.30;1.15;;;15.10;99.90;;;;;;5045756;28;20510;-70
2022/06/02 09:37:49;;;;;;;1.30;1.15;;;15.20;99.90;;;;;;5045384;28;20109;-70
2022/06/02 09:40:37;;;;;;;5.35;1.65;;;15.20;99.90;;;;;;5045388;28;20432;-70
2022/06/02 09:43:06;;;;;;;4.00;1.23;;;15.30;99.90;;;;;;5045674;28;20051;-70
2022/06/02 09:45:43;;;;;;;4.65;1.17;;;15.60;99.90;;;;;;5045681;28;20063;-69
2022/06/02 09:48:36;;;;;;;2.40;1.25;;;15.90;99.90;;;;;;5049435;28;20052;-70
2022/06/02 09:51:17;;;;;;;1.40;1.20;;;15.90;99.90;;;;;;5049434;28;20045;-70
2022/06/02 09:53:42;;;;;;;1.30;0.95;;;15.70;99.90;;;;;;5049791;28;20084;-69
2022/06/02 09:56:39;;;;;;;6.25;1.35;;;15.70;99.90;;;;;;5048310;28;20080;-70
2022/06/02 09:59:36;;;;;;;1.80;0.98;;;15.60;99.90;;;;;;5049077;28;20569;-70
2022/06/02 10:02:20;;;;;;;1.83;1.17;;;15.70;99.90;;;;;;5047930;28;20136;-70
2022/06/02 10:05:04;;;;;;;2.03;1.48;;;15.70;99.90;;;;;;5049614;28;20048;-70
2022/06/02 10:07:55;;;;;;;1.27;1.17;;;15.70;99.90;;;;;;5048869;28;20053;-69
2022/06/02 10:11:15;;;;;;;3.92;1.55;;;15.70;99.90;;;;;;5048084;28;20049;-70
2022/06/02 10:14:11;;;;;;;2.15;1.40;;;15.70;99.90;;;;;;5006298;28;20057;-70
2022/06/02 10:16:48;;;;;;;1.85;1.27;;;15.80;99.90;;;;;;5006739;28;20073;-69
2022/06/02 10:19:32;;;;;;;3.15;1.20;;;15.80;99.90;;;;;;5045414;28;20049;-69
2022/06/02 10:22:09;;;;;;;3.75;1.45;;;15.90;99.90;;;;;;5055426;28;20052;-70
2022/06/02 10:24:47;;;;;;;3.30;1.30;;;16.00;99.90;;;;;;5061205;28;20033;-70
2022/06/02 10:27:29;;;;;;;1.45;1.17;;;16.40;99.90;;;;;;5067762;28;20115;-70
2022/06/02 10:30:10;;;;;;;2.28;1.52;;;16.10;99.90;;;;;;5053204;28;20055;-71
2022/06/02 10:32:52;;;;;;;1.23;1.13;;;16.00;99.90;;;;;;5048989;28;20875;-70
2022/06/02 10:35:47;;;;;;;1.10;1.05;;;16.10;99.90;;;;;;5055072;28;20723;-70
2022/06/02 10:38:26;;;;;;;1.55;1.08;;;16.20;99.90;;;;;;5049737;28;20052;-70
2022/06/02 10:41:13;;;;;;;1.70;1.17;;;16.40;99.90;;;;;;5054874;28;20064;-70
2022/06/02 10:43:58;;;;;;;2.13;1.50;;;16.70;99.90;;;;;;5047975;28;20053;-70
2022/06/02 10:47:20;;;;;;;2.00;1.25;;;16.60;99.90;;;;;;5060654;28;20052;-70
2022/06/02 10:50:10;;;;;;;3.13;0.95;;;16.60;99.90;;;;;;5005616;28;20595;-70
2022/06/02 10:53:09;;;;;;;4.40;1.42;;;16.60;99.90;;;;;;5024672;28;20141;-70
2022/06/02 10:56:08;;;;;;;2.35;1.30;;;16.50;99.90;;;;;;5041436;28;20060;-70
2022/06/02 10:59:10;;;;;;;2.05;1.45;;;16.40;99.90;;;;;;5047169;28;20064;-70
2022/06/02 11:01:35;;;;;;;2.42;1.00;;;16.30;99.90;;;;;;5053951;28;20053;-70
2022/06/02 11:04:25;;;;;;;1.88;0.95;;;16.40;99.90;;;;;;5047105;28;20045;-70
2022/06/02 11:07:05;;;;;;;1.95;1.00;;;16.40;99.90;;;;;;5047953;28;20094;-70
2022/06/02 11:09:37;;;;;;;2.33;1.40;;;16.50;99.90;;;;;;5063190;28;20047;-70
2022/06/02 11:12:24;;;;;;;2.13;1.48;;;16.60;99.90;;;;;;5065526;28;20051;-71
2022/06/02 11:15:30;;;;;;;2.97;1.23;;;16.70;99.90;;;;;;5046537;28;20052;-71
2022/06/02 11:18:22;;;;;;;1.17;0.98;;;16.80;99.90;;;;;;5046287;28;20175;-70
2022/06/02 11:21:06;;;;;;;1.00;0.90;;;16.90;99.90;;;;;;5048226;28;20045;-71
2022/06/02 11:23:53;;;;;;;4.43;1.00;;;16.80;99.90;;;;;;5063160;28;20049;-70
2022/06/02 11:26:22;;;;;;;3.28;1.23;;;16.80;99.90;;;;;;5048072;28;20095;-70
2022/06/02 11:29:03;;;;;;;4.22;1.15;;;16.90;99.90;;;;;;5046171;28;20041;-70
2022/06/02 11:32:02;;;;;;;2.72;0.95;;;16.90;99.90;;;;;;5047489;28;20048;-70
2022/06/02 11:34:49;;;;;;;2.95;1.25;;;16.90;99.90;;;;;;5047999;28;20161;-70
2022/06/02 11:37:21;;;;;;;2.30;1.50;;;17.10;99.90;;;;;;5048430;28;20052;-70
2022/06/02 11:40:18;;;;;;;2.03;1.20;;;17.20;99.90;;;;;;5046925;28;20080;-70
2022/06/02 11:42:50;;;;;;;6.28;1.55;;;17.20;99.90;;;;;;5048393;28;20464;-70
2022/06/02 11:45:33;;;;;;;3.13;1.20;;;17.30;99.90;;;;;;5047310;28;20505;-70
2022/06/02 11:48:18;;;;;;;3.17;1.20;;;17.30;99.90;;;;;;5047275;28;20141;-69
2022/06/02 11:51:05;;;;;;;3.15;1.20;;;17.40;99.90;;;;;;5051170;28;20048;-70
2022/06/02 11:53:42;;;;;;;2.45;0.95;;;17.40;99.90;;;;;;5046649;28;20127;-70
2022/06/02 11:56:42;;;;;;;2.22;1.00;;;17.60;99.90;;;;;;5045700;28;20052;-70
2022/06/02 11:59:34;;;;;;;3.08;1.20;;;17.70;99.90;;;;;;5045409;28;20061;-70
2022/06/02 12:02:58;;;;;;;2.03;1.10;;;17.80;99.90;;;;;;5058873;28;20625;-69
2022/06/02 12:05:37;;;;;;;2.05;1.38;;;17.90;99.90;;;;;;5006349;28;20119;-70
2022/06/02 12:08:27;;;;;;;1.77;1.02;;;17.80;99.90;;;;;;5066210;28;20037;-70
2022/06/02 12:11:14;;;;;;;1.85;1.15;;;17.80;99.90;;;;;;5060673;28;20047;-70
2022/06/02 12:14:07;;;;;;;1.08;0.90;;;18.00;99.90;;;;;;5047320;28;20047;-69
2022/06/02 12:17:17;;;;;;;3.33;1.00;;;18.10;99.90;;;;;;5045137;28;20049;-69
2022/06/02 12:20:16;;;;;;;2.10;1.30;;;18.30;99.90;;;;;;5045363;28;20049;-70
2022/06/02 12:23:00;;;;;;;0.82;0.82;;;18.20;99.90;;;;;;5046180;28;20051;-70
2022/06/02 12:25:52;;;;;;;2.00;1.05;;;18.10;99.90;;;;;;5046998;28;20413;-69
2022/06/02 12:28:48;;;;;;;1.23;1.00;;;18.00;99.90;;;;;;5046320;28;20045;-70
2022/06/02 12:31:37;;;;;;;1.30;1.17;;;18.00;99.90;;;;;;5047058;28;20064;-70
2022/06/02 12:34:40;;;;;;;1.55;0.88;;;18.10;99.90;;;;;;5045573;28;20618;-70
2022/06/02 12:37:21;;;;;;;1.85;0.75;;;18.20;99.90;;;;;;5046794;28;20104;-70
2022/06/02 12:40:04;;;;;;;1.27;0.82;;;18.20;99.90;;;;;;5066159;28;20048;-70
2022/06/02 12:42:51;;;;;;;2.35;1.17;;;18.10;99.90;;;;;;5065999;28;20052;-70
2022/06/02 12:45:32;;;;;;;0.98;0.77;;;18.00;99.90;;;;;;5065396;28;20044;-70
2022/06/02 12:48:38;;;;;;;0.93;0.80;;;18.00;99.90;;;;;;5065500;28;20041;-70
2022/06/02 12:51:20;;;;;;;1.67;1.10;;;17.80;99.90;;;;;;5064958;28;20059;-70
2022/06/02 12:53:46;;;;;;;;;;;17.80;99.90;;;;;;5066805;28;20135;-70
2022/06/02 12:56:38;;;;;;;2.35;0.93;;;18.00;99.90;;;;;;5064772;28;20011;-70
2022/06/02 12:59:23;;;;;;;;;;;18.20;99.90;;;;;;5065219;28;20531;-69
2022/06/02 13:01:58;;;;;;;1.27;1.00;;;18.40;99.90;;;;;;5047873;28;19924;-69
2022/06/02 13:04:38;;;;;;;0.80;0.80;;;18.60;99.90;;;;;;5064517;28;20067;-70
2022/06/02 13:07:45;;;;;;;2.47;0.90;;;18.80;99.90;;;;;;5064798;28;20060;-69
2022/06/02 13:10:45;;;;;;;2.85;1.10;;;18.90;99.90;;;;;;5065982;28;20051;-70
2022/06/02 13:13:34;;;;;;;1.50;1.10;;;19.00;99.90;;;;;;5064149;28;20374;-69
2022/06/02 13:16:26;;;;;;;1.88;1.08;;;19.10;99.90;;;;;;5049336;28;20060;-69
2022/06/02 13:19:25;;;;;;;2.30;1.17;;;19.10;99.90;;;;;;5045625;28;20083;-69
2022/06/02 13:22:02;;;;;;;4.68;2.05;;;19.20;99.90;;;;;;5054712;28;20574;-70
2022/06/02 13:25:11;;;;;;;3.00;1.10;;;19.20;99.90;;;;;;5051424;28;20041;-69
2022/06/02 13:28:15;;;;;;;2.55;1.30;;;19.30;99.90;;;;;;5009349;28;20282;-70
2022/06/02 13:31:00;;;;;;;1.95;1.20;;;19.20;99.90;;;;;;5050601;28;20036;-70
2022/06/02 13:34:16;;;;;;;3.95;1.30;;;19.40;99.90;;;;;;5052630;28;20113;-69
2022/06/02 13:37:04;;;;;;;2.63;1.05;;;19.50;99.90;;;;;;5039501;28;20041;-69
2022/06/02 13:40:07;;;;;;;1.73;1.00;;;19.60;99.90;;;;;;5054127;28;20179;-70
2022/06/02 13:43:04;;;;;;;1.73;0.98;;;19.60;99.90;;;;;;5053237;28;20363;-69
2022/06/02 13:46:12;;;;;;;0.93;0.70;;;19.50;99.90;;;;;;5049691;28;20037;-69
2022/06/02 13:49:02;;;;;;;3.33;1.05;;;19.50;99.90;;;;;;5051274;28;20047;-69
2022/06/02 13:51:38;;;;;;;4.00;0.95;;;19.60;99.90;;;;;;5046908;28;20037;-69
2022/06/02 13:57:30;;;;;;;1.77;1.35;;;19.80;99.90;;;;;;5047221;28;20550;-70
2022/06/02 14:00:14;;;;;;;2.80;1.17;;;19.90;99.90;;;;;;5046680;28;20045;-69
2022/06/02 14:02:58;;;;;;;1.42;1.33;;;20.00;99.90;;;;;;5048499;28;20496;-69
2022/06/02 14:05:34;;;;;;;1.67;1.10;;;20.10;99.90;;;;;;5050985;28;20115;-69
2022/06/02 14:08:31;;;;;;;1.23;1.13;;;20.20;99.90;;;;;;5048511;28;20053;-69
2022/06/02 14:11:07;;;;;;;1.90;1.00;;;20.30;99.90;;;;;;5037940;28;20481;-69
2022/06/02 14:13:47;;;;;;;3.03;0.90;;;20.30;99.90;;;;;;5047374;28;20789;-69
2022/06/02 14:16:34;;;;;;;2.17;1.02;;;20.40;99.90;;;;;;5046053;28;20527;-69
2022/06/02 14:19:31;;;;;;;2.53;1.23;;;20.50;99.90;;;;;;5056852;28;20086;-69
2022/06/02 14:21:56;;;;;;;1.45;0.90;;;20.50;99.90;;;;;;5052876;28;20645;-69
2022/06/02 14:24:43;;;;;;;1.48;1.00;;;20.60;99.90;;;;;;5054500;28;20043;-69
2022/06/02 14:27:29;;;;;;;3.03;1.10;;;20.70;99.90;;;;;;5044882;28;20041;-69
2022/06/02 14:29:58;;;;;;;2.10;0.70;;;20.80;99.90;;;;;;5047934;28;20103;-69
2022/06/02 14:32:52;;;;;;;4.22;1.20;;;20.80;99.90;;;;;;5052152;28;20413;-69
2022/06/02 14:35:30;;;;;;;2.60;0.85;;;20.90;99.90;;;;;;5049048;28;20044;-69
2022/06/02 14:38:43;;;;;;;0.98;0.63;;;21.10;99.90;;;;;;5037899;28;20076;-69
2022/06/02 14:41:30;;;;;;;4.00;1.20;;;21.20;99.90;;;;;;5011541;28;20060;-69
2022/06/02 14:44:14;;;;;;;1.63;0.75;;;21.10;99.90;;;;;;5051403;28;20500;-69
2022/06/02 14:47:12;;;;;;;3.00;1.23;;;21.10;99.90;;;;;;5051138;28;20049;-69